createdAt,value
2022-11-16T00:01:02.156Z,66.50
2022-11-16T00:03:32.161Z,66.80
2022-11-16T00:06:02.597Z,66.80
2022-11-16T00:08:35.264Z,66.80
2022-11-16T00:11:09.263Z,67.00
2022-11-16T00:13:39.242Z,67.10
2022-11-16T00:16:10.304Z,67.10
2022-11-16T00:18:38.643Z,67.20
2022-11-16T00:21:07.928Z,67.20
2022-11-16T00:23:39.187Z,67.30
2022-11-16T00:26:10.445Z,68.40
2022-11-16T00:28:38.830Z,67.50
2022-11-16T00:31:08.787Z,67.50
2022-11-16T00:33:37.759Z,67.40
2022-11-16T00:36:11.314Z,67.40
2022-11-16T00:38:42.052Z,67.50
2022-11-16T00:41:11.428Z,67.60
2022-11-16T00:43:40.080Z,67.70
2022-11-16T00:46:09.923Z,67.80
2022-11-16T00:48:38.621Z,67.90
2022-11-16T00:51:07.464Z,67.90
2022-11-16T00:53:37.091Z,68.10
2022-11-16T00:56:08.135Z,68.20
2022-11-16T00:58:42.929Z,68.30
2022-11-16T01:01:14.016Z,68.20
2022-11-16T01:03:42.772Z,68.30
2022-11-16T01:06:13.418Z,68.30
2022-11-16T01:08:43.361Z,68.50
2022-11-16T01:11:33.823Z,68.50
2022-11-16T01:14:04.434Z,68.60
2022-11-16T01:16:33.191Z,68.40
2022-11-16T01:19:02.894Z,68.50
2022-11-16T01:21:31.520Z,68.50
2022-11-16T01:24:00.072Z,68.70
2022-11-16T01:26:30.133Z,68.60
2022-11-16T01:28:59.929Z,68.70
2022-11-16T01:31:32.396Z,68.70
2022-11-16T01:34:03.020Z,68.70
2022-11-16T01:36:31.774Z,69.50
2022-11-16T01:39:02.636Z,68.80
2022-11-16T01:41:39.145Z,68.80
2022-11-16T01:44:47.137Z,69.00
2022-11-16T01:47:20.616Z,69.00
2022-11-16T01:49:53.278Z,69.80
2022-11-16T01:52:31.520Z,69.00
2022-11-16T01:55:00.563Z,69.10
2022-11-16T01:57:40.509Z,69.10
2022-11-16T02:00:14.804Z,69.20
2022-11-16T02:02:51.723Z,69.10
2022-11-16T02:05:49.622Z,69.10
2022-11-16T02:08:53.032Z,69.30
2022-11-16T02:11:54.102Z,69.30
2022-11-16T02:14:41.102Z,69.40
2022-11-16T02:17:21.250Z,69.40
2022-11-16T02:20:39.656Z,69.30
2022-11-16T02:23:54.402Z,69.70
2022-11-16T02:26:48.704Z,69.50
2022-11-16T02:29:32.513Z,69.70
2022-11-16T02:32:05.931Z,69.70
2022-11-16T02:34:40.489Z,69.50
2022-11-16T02:37:12.735Z,69.70
2022-11-16T02:39:43.659Z,69.60
2022-11-16T02:42:17.857Z,69.60
2022-11-16T02:44:51.135Z,69.80
2022-11-16T02:47:26.488Z,69.90
2022-11-16T02:50:00.863Z,69.90
2022-11-16T02:52:30.541Z,70.10
2022-11-16T02:54:58.924Z,69.90
2022-11-16T02:57:39.999Z,69.90
2022-11-16T03:00:21.480Z,70.20
2022-11-16T03:03:03.027Z,70.20
2022-11-16T03:05:36.894Z,70.30
2022-11-16T03:08:16.721Z,70.20
2022-11-16T03:11:09.202Z,70.20
2022-11-16T03:13:39.531Z,70.20
2022-11-16T03:16:17.031Z,70.30
2022-11-16T03:18:49.013Z,70.40
2022-11-16T03:21:23.361Z,70.30
2022-11-16T03:23:52.593Z,70.40
2022-11-16T03:26:27.932Z,70.30
2022-11-16T03:29:01.959Z,70.50
2022-11-16T03:31:40.407Z,70.50
2022-11-16T03:34:13.276Z,70.50
2022-11-16T03:36:46.046Z,70.50
2022-11-16T03:39:21.667Z,70.50
2022-11-16T03:41:51.999Z,70.60
2022-11-16T03:44:22.123Z,70.60
2022-11-16T03:46:52.002Z,70.50
2022-11-16T03:49:23.456Z,70.60
2022-11-16T03:51:54.510Z,71.50
2022-11-16T03:54:24.223Z,70.50
2022-11-16T03:56:52.697Z,70.50
2022-11-16T03:59:22.742Z,70.60
2022-11-16T04:01:52.656Z,70.60
2022-11-16T04:04:39.272Z,70.50
2022-11-16T04:07:25.456Z,70.50
2022-11-16T04:10:11.609Z,70.70
2022-11-16T04:13:01.219Z,70.50
2022-11-16T04:15:47.214Z,70.70
2022-11-16T04:18:34.762Z,70.60
2022-11-16T04:21:21.030Z,70.60
2022-11-16T04:24:08.279Z,70.50
2022-11-16T04:26:52.383Z,70.60
2022-11-16T04:29:21.178Z,70.60
2022-11-16T04:32:07.729Z,70.70
2022-11-16T04:34:55.166Z,70.70
2022-11-16T04:37:42.139Z,70.80
2022-11-16T04:40:13.333Z,70.70
2022-11-16T04:42:40.782Z,70.80
2022-11-16T04:45:42.892Z,70.70
2022-11-16T04:48:12.420Z,71.00
2022-11-16T04:50:43.159Z,70.90
2022-11-16T04:53:12.468Z,71.80
2022-11-16T04:55:47.053Z,71.00
2022-11-16T04:58:16.178Z,71.00
2022-11-16T05:00:44.996Z,71.10
2022-11-16T05:03:15.975Z,71.20
2022-11-16T05:05:46.956Z,71.20
2022-11-16T05:08:15.613Z,71.20
2022-11-16T05:10:45.810Z,71.10
2022-11-16T05:13:14.285Z,71.10
2022-11-16T05:15:46.666Z,71.10
2022-11-16T05:18:15.147Z,71.00
2022-11-16T05:21:00.809Z,71.20
2022-11-16T05:23:51.449Z,71.00
2022-11-16T05:26:22.817Z,71.10
2022-11-16T05:28:52.715Z,70.90
2022-11-16T05:31:22.157Z,70.90
2022-11-16T05:33:50.977Z,71.00
2022-11-16T05:36:20.878Z,71.00
2022-11-16T05:38:53.918Z,71.00
2022-11-16T05:41:26.300Z,71.00
2022-11-16T05:43:56.015Z,71.00
2022-11-16T05:46:25.788Z,71.00
2022-11-16T05:48:57.071Z,71.00
2022-11-16T05:51:26.405Z,71.00
2022-11-16T05:53:57.564Z,71.00
2022-11-16T05:56:27.591Z,71.00
2022-11-16T05:58:56.851Z,71.10
2022-11-16T06:01:25.676Z,71.00
2022-11-16T06:03:54.833Z,71.00
2022-11-16T06:06:23.208Z,71.10
2022-11-16T06:08:52.918Z,70.90
2022-11-16T06:11:32.741Z,71.00
2022-11-16T06:14:04.435Z,70.90
2022-11-16T06:16:34.003Z,71.00
2022-11-16T06:19:04.948Z,70.90
2022-11-16T06:21:33.604Z,70.90
2022-11-16T06:24:08.871Z,70.90
2022-11-16T06:26:39.578Z,71.00
2022-11-16T06:29:08.252Z,71.10
2022-11-16T06:31:37.292Z,71.10
2022-11-16T06:34:05.694Z,71.10
2022-11-16T06:36:35.270Z,71.00
2022-11-16T06:39:04.394Z,71.00
2022-11-16T06:41:41.199Z,71.10
2022-11-16T06:44:12.690Z,71.10
2022-11-16T06:46:48.915Z,71.10
2022-11-16T06:49:17.445Z,71.00
2022-11-16T06:51:47.293Z,71.10
2022-11-16T06:54:16.428Z,71.10
2022-11-16T06:56:44.819Z,71.10
2022-11-16T06:59:14.705Z,71.00
2022-11-16T07:01:44.504Z,71.20
2022-11-16T07:04:15.708Z,71.20
2022-11-16T07:06:50.606Z,71.00
2022-11-16T07:09:20.080Z,71.00
2022-11-16T07:11:49.432Z,71.00
2022-11-16T07:14:20.847Z,71.00
2022-11-16T07:16:56.323Z,71.10
2022-11-16T07:19:27.923Z,71.10
2022-11-16T07:21:56.596Z,71.20
2022-11-16T07:24:25.285Z,71.20
2022-11-16T07:26:54.011Z,71.20
2022-11-16T07:29:27.586Z,71.30
2022-11-16T07:32:14.871Z,71.20
2022-11-16T07:35:01.175Z,71.10
2022-11-16T07:37:30.406Z,71.10
2022-11-16T07:39:59.342Z,71.10
2022-11-16T07:42:27.874Z,71.10
2022-11-16T07:45:16.862Z,71.10
2022-11-16T07:47:53.554Z,71.00
2022-11-16T07:50:48.283Z,70.80
2022-11-16T07:53:18.166Z,70.80
2022-11-16T07:55:54.422Z,71.60
2022-11-16T07:58:24.673Z,70.80
2022-11-16T08:00:56.578Z,70.60
2022-11-16T08:03:25.098Z,70.50
2022-11-16T08:06:01.250Z,70.40
2022-11-16T08:08:30.782Z,70.40
2022-11-16T08:11:02.216Z,70.30
2022-11-16T08:13:34.213Z,70.20
2022-11-16T08:16:09.627Z,70.20
2022-11-16T08:18:38.951Z,70.20
2022-11-16T08:21:09.501Z,70.10
2022-11-16T08:23:40.201Z,70.10
2022-11-16T08:26:14.271Z,70.10
2022-11-16T08:28:46.755Z,70.10
2022-11-16T08:31:21.259Z,70.00
2022-11-16T08:33:53.729Z,70.00
2022-11-16T08:36:23.293Z,70.00
2022-11-16T08:38:53.480Z,70.10
2022-11-16T08:41:24.457Z,70.20
2022-11-16T08:43:53.975Z,70.30
2022-11-16T08:46:25.288Z,70.40
2022-11-16T08:49:03.048Z,70.50
2022-11-16T08:51:31.913Z,70.40
2022-11-16T08:54:06.316Z,70.40
2022-11-16T08:56:37.708Z,70.50
2022-11-16T08:59:06.960Z,70.50
2022-11-16T09:01:37.044Z,70.50
2022-11-16T09:04:05.896Z,70.50
2022-11-16T09:06:34.308Z,70.80
2022-11-16T09:09:03.027Z,70.40
2022-11-16T09:11:31.481Z,70.40
2022-11-16T09:14:00.659Z,70.30
2022-11-16T09:16:29.067Z,70.30
2022-11-16T09:18:58.897Z,70.30
2022-11-16T09:21:29.818Z,70.20
2022-11-16T09:23:58.978Z,70.10
2022-11-16T09:26:27.559Z,70.00
2022-11-16T09:28:58.120Z,70.00
2022-11-16T09:31:28.171Z,69.70
2022-11-16T09:33:59.876Z,69.70
2022-11-16T09:36:29.489Z,69.70
2022-11-16T09:42:01.560Z,69.50
2022-11-16T09:44:48.980Z,69.50
2022-11-16T09:47:22.343Z,69.30
2022-11-16T09:49:59.731Z,69.20
2022-11-16T09:52:36.189Z,69.10
2022-11-16T09:55:23.085Z,68.90
2022-11-16T09:57:56.436Z,68.90
2022-11-16T10:00:25.619Z,68.70
2022-11-16T10:03:03.907Z,68.80
2022-11-16T10:05:40.072Z,68.80
2022-11-16T10:08:16.253Z,68.70
2022-11-16T10:10:54.873Z,68.70
2022-11-16T10:13:36.850Z,68.50
2022-11-16T10:16:14.881Z,68.30
2022-11-16T10:18:56.962Z,68.40
2022-11-16T10:21:46.885Z,68.10
2022-11-16T10:24:37.729Z,68.10
2022-11-16T10:27:45.742Z,68.00
2022-11-16T10:30:19.403Z,68.10
2022-11-16T10:32:52.189Z,68.10
2022-11-16T10:35:28.617Z,68.10
2022-11-16T10:37:59.508Z,68.10
2022-11-16T10:40:31.342Z,68.10
2022-11-16T10:43:05.998Z,68.10
2022-11-16T10:45:42.061Z,67.80
2022-11-16T10:48:26.368Z,67.50
2022-11-16T10:50:55.291Z,67.30
2022-11-16T10:53:35.735Z,67.00
2022-11-16T10:56:17.442Z,66.80
2022-11-16T10:58:55.947Z,66.90
2022-11-16T11:01:36.359Z,66.70
2022-11-16T11:04:23.638Z,67.60
2022-11-16T11:06:55.061Z,66.70
2022-11-16T11:09:29.921Z,66.90
2022-11-16T11:12:22.921Z,66.90
2022-11-16T11:15:26.213Z,67.00
2022-11-16T11:18:29.116Z,66.70
2022-11-16T11:21:10.147Z,66.40
2022-11-16T11:23:45.979Z,66.50
2022-11-16T11:26:37.013Z,66.40
2022-11-16T11:29:22.910Z,66.20
2022-11-16T11:31:53.869Z,66.00
2022-11-16T11:34:24.988Z,65.90
2022-11-16T11:36:58.694Z,66.00
2022-11-16T11:39:35.042Z,65.60
2022-11-16T11:42:22.883Z,65.50
2022-11-16T11:44:57.683Z,65.30
2022-11-16T11:48:01.932Z,65.30
2022-11-16T11:50:45.778Z,65.60
2022-11-16T11:53:29.913Z,65.40
2022-11-16T11:56:00.580Z,65.20
2022-11-16T11:58:33.937Z,65.20
2022-11-16T12:01:56.806Z,65.20
2022-11-16T12:05:21.682Z,65.20
2022-11-16T12:08:14.707Z,65.10
2022-11-16T12:10:49.142Z,65.10
2022-11-16T12:13:44.757Z,65.20
2022-11-16T12:16:20.800Z,64.90
2022-11-16T12:19:07.299Z,65.30
2022-11-16T12:21:50.364Z,65.20
2022-11-16T12:24:42.733Z,65.30
2022-11-16T12:27:21.186Z,65.20
2022-11-16T12:30:03.251Z,65.20
2022-11-16T12:32:54.469Z,65.10
2022-11-16T12:35:48.219Z,64.80
2022-11-16T12:38:31.427Z,64.50
2022-11-16T12:41:18.522Z,64.40
2022-11-16T12:43:56.654Z,64.40
2022-11-16T12:46:36.898Z,64.40
2022-11-16T12:49:49.715Z,64.30
2022-11-16T12:52:35.043Z,64.30
2022-11-16T12:55:28.257Z,64.30
2022-11-16T12:58:16.160Z,64.30
2022-11-16T13:01:09.104Z,64.40
2022-11-16T13:03:46.819Z,64.00
2022-11-16T13:06:20.171Z,64.40
2022-11-16T13:08:55.259Z,64.30
2022-11-16T13:11:27.660Z,64.00
2022-11-16T13:14:01.331Z,63.90
2022-11-16T13:16:30.704Z,63.80
2022-11-16T13:19:02.166Z,63.80
2022-11-16T13:21:39.926Z,63.60
2022-11-16T13:24:21.923Z,63.60
2022-11-16T13:27:04.633Z,63.30
2022-11-16T13:29:40.131Z,63.30
2022-11-16T13:32:16.463Z,63.50
2022-11-16T13:34:47.184Z,63.60
2022-11-16T13:37:44.430Z,63.50
2022-11-16T13:40:29.938Z,63.00
2022-11-16T13:43:20.031Z,62.80
2022-11-16T13:45:58.831Z,62.50
2022-11-16T13:48:33.399Z,62.80
2022-11-16T13:51:06.344Z,63.10
2022-11-16T13:56:29.541Z,63.30
2022-11-16T13:58:59.389Z,63.40
2022-11-16T14:01:58.577Z,63.50
2022-11-16T14:04:42.962Z,63.30
2022-11-16T14:07:33.383Z,63.30
2022-11-16T14:10:05.617Z,63.30
2022-11-16T14:12:58.670Z,63.60
2022-11-16T14:15:36.076Z,63.30
2022-11-16T14:18:37.028Z,63.50
2022-11-16T14:21:17.470Z,63.30
2022-11-16T14:24:08.594Z,63.30
2022-11-16T14:26:50.098Z,63.30
2022-11-16T14:29:46.658Z,63.30
2022-11-16T14:32:22.898Z,63.30
2022-11-16T14:34:55.073Z,63.30
2022-11-16T14:37:34.737Z,63.30
2022-11-16T14:40:09.109Z,63.30
2022-11-16T14:43:10.034Z,63.30
2022-11-16T14:45:39.681Z,63.30
2022-11-16T14:48:17.797Z,64.10
2022-11-16T14:51:00.561Z,63.20
2022-11-16T14:53:30.637Z,63.30
2022-11-16T14:56:11.636Z,63.30
2022-11-16T14:58:40.969Z,63.00
2022-11-16T15:01:15.701Z,63.10
2022-11-16T15:03:54.648Z,63.00
2022-11-16T15:06:24.206Z,63.10
2022-11-16T15:08:58.623Z,63.20
2022-11-16T15:11:45.458Z,63.00
2022-11-16T15:14:19.806Z,63.20
2022-11-16T15:16:53.070Z,63.20
2022-11-16T15:19:22.390Z,63.20
2022-11-16T15:21:56.149Z,63.20
2022-11-16T15:24:30.970Z,63.00
2022-11-16T15:27:14.067Z,63.00
2022-11-16T15:29:42.799Z,63.10
2022-11-16T15:32:16.887Z,63.10
2022-11-16T15:34:55.333Z,63.10
2022-11-16T15:37:31.534Z,63.00
2022-11-16T15:40:03.263Z,63.00
2022-11-16T15:42:34.460Z,63.00
2022-11-16T15:45:15.673Z,63.00
2022-11-16T15:47:46.469Z,62.90
2022-11-16T15:50:19.479Z,63.00
2022-11-16T15:52:52.659Z,63.10
2022-11-16T15:55:28.915Z,63.10
2022-11-16T15:58:07.453Z,63.10
2022-11-16T16:00:37.893Z,63.10
2022-11-16T16:03:18.363Z,63.20
2022-11-16T16:05:47.113Z,63.10
2022-11-16T16:08:32.750Z,63.20
2022-11-16T16:11:09.759Z,63.20
2022-11-16T16:13:43.793Z,63.10
2022-11-16T16:16:31.762Z,63.20
2022-11-16T16:19:08.331Z,63.30
2022-11-16T16:21:44.646Z,63.30
2022-11-16T16:24:41.622Z,63.40
2022-11-16T16:27:19.145Z,63.30
2022-11-16T16:29:50.834Z,63.30
2022-11-16T16:32:26.659Z,63.30
2022-11-16T16:34:56.954Z,64.10
2022-11-16T16:37:28.528Z,63.30
2022-11-16T16:39:57.326Z,63.30
2022-11-16T16:42:25.880Z,63.30
2022-11-16T16:44:55.735Z,63.30
2022-11-16T16:47:24.553Z,63.30
2022-11-16T16:49:53.166Z,63.40
2022-11-16T16:52:21.641Z,63.40
2022-11-16T16:54:50.043Z,63.40
2022-11-16T16:57:19.968Z,63.40
2022-11-16T16:59:49.230Z,63.50
2022-11-16T17:02:19.785Z,63.50
2022-11-16T17:04:48.499Z,63.50
2022-11-16T17:07:17.778Z,63.50
2022-11-16T17:09:46.263Z,63.50
2022-11-16T17:12:14.874Z,63.40
2022-11-16T17:14:43.944Z,63.30
2022-11-16T17:17:12.368Z,63.30
2022-11-16T17:19:42.423Z,63.20
2022-11-16T17:22:10.940Z,63.20
2022-11-16T17:24:39.370Z,63.20
2022-11-16T17:27:07.818Z,63.10
2022-11-16T17:29:36.266Z,63.10
2022-11-16T17:32:05.150Z,63.10
2022-11-16T17:34:33.932Z,63.10
2022-11-16T17:37:03.836Z,63.00
2022-11-16T17:39:32.540Z,63.10
2022-11-16T17:42:01.004Z,63.00
2022-11-16T17:44:30.371Z,62.90
2022-11-16T17:46:58.887Z,63.00
2022-11-16T17:49:27.380Z,63.00
2022-11-16T17:51:55.735Z,62.90
2022-11-16T17:54:25.567Z,62.90
2022-11-16T17:56:54.243Z,62.90
2022-11-16T17:59:27.940Z,62.90
2022-11-16T18:01:58.456Z,63.00
2022-11-16T18:04:26.980Z,63.10
2022-11-16T18:06:56.035Z,62.90
2022-11-16T18:09:25.800Z,63.10
2022-11-16T18:11:54.240Z,63.00
2022-11-16T18:14:22.900Z,63.20
2022-11-16T18:16:51.448Z,63.10
2022-11-16T18:19:21.158Z,63.00
2022-11-16T18:21:49.869Z,63.10
2022-11-16T18:24:18.284Z,63.10
2022-11-16T18:26:47.968Z,63.10
2022-11-16T18:29:18.634Z,63.00
2022-11-16T18:31:47.062Z,63.00
2022-11-16T18:34:16.764Z,63.00
2022-11-16T18:36:46.335Z,63.00
2022-11-16T18:39:14.774Z,63.00
2022-11-16T18:41:53.259Z,63.10
2022-11-16T18:44:23.442Z,62.90
2022-11-16T18:46:51.770Z,63.00
2022-11-16T18:49:20.343Z,63.10
2022-11-16T18:51:49.035Z,63.00
2022-11-16T18:54:17.520Z,63.10
2022-11-16T18:56:47.846Z,63.10
2022-11-16T18:59:16.575Z,63.00
2022-11-16T19:01:45.548Z,63.00
2022-11-16T19:04:13.938Z,63.10
2022-11-16T19:06:42.328Z,63.10
2022-11-16T19:09:11.355Z,63.10
2022-11-16T19:11:39.970Z,63.10
2022-11-16T19:14:10.694Z,63.10
2022-11-16T19:16:45.206Z,63.10
2022-11-16T19:19:17.511Z,63.10
2022-11-16T19:21:45.920Z,63.10
2022-11-16T19:24:14.488Z,63.20
2022-11-16T19:26:42.943Z,63.10
2022-11-16T19:29:12.810Z,63.10
2022-11-16T19:31:41.391Z,63.30
2022-11-16T19:34:13.298Z,63.30
2022-11-16T19:36:41.656Z,63.40
2022-11-16T19:39:10.554Z,63.40
2022-11-16T19:41:38.927Z,63.30
2022-11-16T19:44:07.538Z,63.40
2022-11-16T19:46:37.748Z,63.50
2022-11-16T19:49:08.604Z,63.50
2022-11-16T19:51:37.565Z,63.50
2022-11-16T19:54:07.112Z,63.60
2022-11-16T19:56:35.877Z,63.60
2022-11-16T19:59:04.506Z,63.70
2022-11-16T20:01:33.177Z,63.70
2022-11-16T20:04:04.927Z,63.70
2022-11-16T20:06:35.746Z,63.90
2022-11-16T20:09:08.715Z,63.90
2022-11-16T20:11:39.147Z,63.90
2022-11-16T20:14:10.261Z,63.80
2022-11-16T20:16:41.343Z,63.80
2022-11-16T20:19:12.323Z,63.90
2022-11-16T20:21:42.381Z,63.90
2022-11-16T20:24:13.419Z,63.90
2022-11-16T20:26:44.602Z,63.90
2022-11-16T20:29:13.985Z,63.90
2022-11-16T20:31:45.269Z,64.00
2022-11-16T20:34:20.230Z,64.00
2022-11-16T20:36:50.821Z,64.00
2022-11-16T20:39:21.848Z,64.00
2022-11-16T20:41:50.783Z,64.00
2022-11-16T20:44:22.188Z,64.00
2022-11-16T20:46:52.404Z,64.00
2022-11-16T20:49:23.059Z,64.10
2022-11-16T20:51:51.802Z,64.10
2022-11-16T20:54:20.768Z,64.10
2022-11-16T20:56:50.578Z,64.20
2022-11-16T20:59:19.738Z,64.20
2022-11-16T21:01:48.851Z,64.20
2022-11-16T21:04:17.526Z,64.20
2022-11-16T21:06:47.414Z,64.20
2022-11-16T21:09:22.315Z,64.20
2022-11-16T21:12:08.346Z,64.20
2022-11-16T21:14:36.788Z,64.20
2022-11-16T21:17:05.264Z,64.20
2022-11-16T21:19:33.594Z,64.30
2022-11-16T21:22:03.456Z,64.20
2022-11-16T21:24:32.228Z,64.30
2022-11-16T21:27:00.804Z,64.40
2022-11-16T21:29:30.398Z,64.30
2022-11-16T21:31:58.926Z,64.30
2022-11-16T21:34:28.610Z,64.30
2022-11-16T21:36:57.512Z,64.40
2022-11-16T21:39:27.682Z,64.40
2022-11-16T21:41:56.180Z,64.40
2022-11-16T21:44:24.653Z,64.40
2022-11-16T21:46:53.418Z,64.50
2022-11-16T21:49:22.008Z,64.50
2022-11-16T21:51:50.402Z,64.60
2022-11-16T21:54:18.807Z,64.60
2022-11-16T21:56:49.154Z,64.60
2022-11-16T21:59:17.809Z,64.60
2022-11-16T22:02:01.840Z,64.70
2022-11-16T22:04:48.019Z,65.10
2022-11-16T22:07:36.816Z,64.70
2022-11-16T22:10:08.508Z,64.80
2022-11-16T22:12:38.986Z,64.80
2022-11-16T22:15:09.429Z,64.90
2022-11-16T22:17:42.833Z,64.80
2022-11-16T22:20:12.323Z,64.90
2022-11-16T22:22:40.809Z,64.90
2022-11-16T22:25:10.082Z,64.90
2022-11-16T22:28:05.696Z,64.90
2022-11-16T22:30:28.330Z,65.00
2022-11-16T22:32:56.702Z,64.90
2022-11-16T22:35:25.171Z,64.90
2022-11-16T22:37:53.571Z,64.90
2022-11-16T22:40:21.923Z,65.00
2022-11-16T22:42:52.326Z,65.00
2022-11-16T22:45:20.888Z,65.00
2022-11-16T22:47:54.526Z,65.10
2022-11-16T22:50:24.481Z,65.00
2022-11-16T22:52:52.893Z,65.00
2022-11-16T22:55:21.607Z,65.00
2022-11-16T22:57:52.022Z,65.00
2022-11-16T23:00:21.164Z,65.00
2022-11-16T23:02:50.331Z,65.00
2022-11-16T23:05:18.786Z,65.10
2022-11-16T23:07:47.304Z,65.10
2022-11-16T23:10:16.197Z,65.10
2022-11-16T23:13:02.383Z,65.10
2022-11-16T23:18:39.265Z,66.00
2022-11-16T23:21:25.294Z,65.10
2022-11-16T23:24:19.664Z,65.10
2022-11-16T23:27:05.441Z,65.10
2022-11-16T23:29:33.945Z,65.10
2022-11-16T23:32:02.535Z,65.10
2022-11-16T23:34:32.719Z,65.10
2022-11-16T23:37:04.443Z,65.10
2022-11-16T23:39:33.518Z,65.20
2022-11-16T23:42:19.488Z,65.10
2022-11-16T23:44:47.899Z,65.10
2022-11-16T23:47:16.323Z,65.10
2022-11-16T23:49:46.026Z,65.10
2022-11-16T23:52:14.741Z,65.10
2022-11-16T23:54:43.136Z,65.10
2022-11-16T23:57:12.012Z,65.10
2022-11-16T23:59:40.636Z,65.20
